Aérodrome :
LOGIN :

S'inscrire | Disclaimer

   EN    FR    IT 

 










Légende :    VFR   VFR Marginal   IFR   IFR Intensif   IFR Très Intensif
Visi : 
Plafond : 
>= 8 km
>= 3000ft
5 à 8 km
1000 à 3000 ft
1500m à 5 km
500 à 1000 ft
800 à 1500m
200 à 500 ft
< 800m
< 200 ft
Symboles :   Orages  Brouillard  Fortes neiges  Fortes précipitations  Vent > 20 kt
SIGMETs :   Divers  Orages  Givrage  Turbulence  Onde Orograph.  Cendres Volcan.







- Altitude de l'aérodrome : 485 ft
- Code IATA : QSA


LELL - Sabadell

DERNIER METAR :
  • 181030Z 11002KT 9999 FEW025 23/17 Q1015

METARs EXPIRÉS :
  • 181000Z VRB02KT 9999 FEW025 23/17 Q1016
  • 180930Z 00000KT 9999 FEW025 23/16 Q1016
  • 180900Z VRB01KT 9999 FEW025 21/16 Q1016
  • 180830Z 00000KT 9999 FEW020 20/16 Q1017
  • 180800Z 00000KT 9999 FEW020 SCT065 19/15 Q1016

TAF TAF LELL
Valide du 18 à 09h jusqu'au 19 à 09h UTC


180800Z 1809/1909 VRB04KT 9999 BKN020 TX22/1813Z TN15/1906Z
BECMG 1810/1812 15008KT
TEMPO 1809/1909 4000 TSRA BKN018 FEW020CB
PROB40
TEMPO 1818/1903 3000 +TSRA BKN014 SCT020CB
Pas de NOTAMs connus pour ce terrain.
4 SIGMETs publiés pour la FIR Barcelona (LECB) :
 
Orages noyés dans la masse
LECB SIGMET 5 VALID 181100/181400 LEVA
LECB BARCELONA FIR/UIR EMBD TS FCST W OF LINE N4120 E00110 - N3810 W001 TOP FL380 MOV NE NC=
Orages noyés dans la masse
LECB SIGMET 4 VALID 181000/181100 LEVA
LECB BARCELONA FIR/UIR EMBD TS OBS AT 0946Z WI N40 W00010 - N4020 W00050 - N4120 E00030 - N4110 E00110 - N40 W00010 TOP FL340 STNR NC=
Orages noyés dans la masse
LECB SIGMET 3 VALID 180856/181100 LEVA
LECB BARCELONA FIR/UIR EMBD TS OBS AT 0856Z W OF LINE N4230 E00040 - N4030 W00030 TOP FL340 STNR NC=
Orages noyés dans la masse
LECB SIGMET 2 VALID 1808002/181000 LEVA
LECB BARCELONA FIR/UIR EMBD TS OBS AT 0752Z WI N4020 W00020 - N4010 E00010 - N4130 E002 - N4210 E00110 - N4020 W00020 TOP FL340 MOV NE NC=



MET'MAP, la Météo Aéronautique d'un coup d'oeil ! - Copyright ORBIFLY Décembre 2007 - Disclaimer

ORBIFLY MET'MAP TEAM :

Programmation & Développement : Alexandra Zaïnal
Conception & Développement : Baudouin d'Aumeries
Co-Programmation & Développement : Marc-Olivier Méhu
Soutien technique & logistique : Manuel Goepfert

Contact : metmap@orbifly.com




SOURCES & CREDITS :

   NOAA